TimeEDT,TemperatureF,Dew PointF,Humidity,Sea Level PressureIn,VisibilityMPH,Wind Direction,Wind SpeedMPH,Gust SpeedMPH,PrecipitationIn,Events,Conditions,WindDirDegrees,DateUTC
12:53 AM,46.9,44.1,90,30.18,10.0,Calm,Calm,-,N/A,,Clear,0,2013-05-28 04:53:00
1:53 AM,46.0,43.0,89,30.19,10.0,Calm,Calm,-,N/A,,Clear,0,2013-05-28 05:53:00
2:53 AM,46.0,43.0,89,30.19,10.0,Calm,Calm,-,N/A,,Clear,0,2013-05-28 06:53:00
3:53 AM,45.0,43.0,93,30.19,10.0,Calm,Calm,-,N/A,,Clear,0,2013-05-28 07:53:00
4:53 AM,44.1,42.1,93,30.19,10.0,Calm,Calm,-,N/A,,Clear,0,2013-05-28 08:53:00
5:53 AM,44.1,42.1,93,30.20,10.0,Calm,Calm,-,N/A,,Clear,0,2013-05-28 09:53:00
6:53 AM,46.0,44.1,93,30.20,10.0,Calm,Calm,-,N/A,,Clear,0,2013-05-28 10:53:00
7:53 AM,51.1,44.1,77,30.21,10.0,Calm,Calm,-,N/A,,Clear,0,2013-05-28 11:53:00
8:53 AM,57.9,45.0,62,30.20,10.0,Calm,Calm,-,N/A,,Clear,0,2013-05-28 12:53:00
9:53 AM,63.0,43.0,48,30.19,10.0,Calm,Calm,-,N/A,,Clear,0,2013-05-28 13:53:00
10:53 AM,64.9,46.0,50,30.19,10.0,Calm,Calm,-,N/A,,Clear,0,2013-05-28 14:53:00
11:53 AM,68.0,48.0,49,30.19,10.0,Calm,Calm,-,N/A,,Clear,0,2013-05-28 15:53:00
12:53 PM,66.0,46.0,48,30.18,10.0,South,4.6,-,N/A,,Overcast,180,2013-05-28 16:53:00
1:53 PM,63.0,51.1,65,30.18,10.0,South,4.6,-,0.00,Rain,Light Rain,180,2013-05-28 17:53:00
2:53 PM,60.1,54.0,80,30.19,4.0,Calm,Calm,-,0.04,Rain,Light Rain,0,2013-05-28 18:53:00
3:08 PM,60.8,53.6,77,30.19,2.5,Calm,Calm,-,0.01,Rain,Light Rain,0,2013-05-28 19:08:00
3:16 PM,60.8,55.4,82,30.19,3.0,Calm,Calm,-,0.03,Rain,Light Rain,0,2013-05-28 19:16:00
3:53 PM,59.0,55.0,87,30.18,4.0,Calm,Calm,-,0.07,Rain,Light Rain,0,2013-05-28 19:53:00
4:53 PM,59.0,55.9,90,30.17,6.0,Calm,Calm,-,0.02,,Overcast,0,2013-05-28 20:53:00
5:12 PM,59.0,55.4,88,30.17,6.0,Calm,Calm,-,N/A,,Overcast,0,2013-05-28 21:12:00
5:25 PM,59.0,55.4,88,30.18,1.8,Calm,Calm,-,0.00,Rain,Light Rain,0,2013-05-28 21:25:00
5:38 PM,57.2,55.4,94,30.17,2.0,SE,4.6,-,0.01,Rain,Light Rain,140,2013-05-28 21:38:00
5:50 PM,57.2,55.4,94,30.16,2.0,ESE,4.6,-,0.02,Rain,Light Rain,110,2013-05-28 21:50:00
5:53 PM,57.9,55.9,93,30.15,2.0,SE,4.6,-,0.02,Rain,Light Rain,130,2013-05-28 21:53:00
6:00 PM,57.2,55.4,94,30.16,3.0,ESE,4.6,-,N/A,,Overcast,120,2013-05-28 22:00:00
6:53 PM,57.9,55.9,93,30.14,5.0,Calm,Calm,-,N/A,,Overcast,0,2013-05-28 22:53:00
7:22 PM,57.2,55.4,94,30.15,5.0,Calm,Calm,-,N/A,,Overcast,0,2013-05-28 23:22:00
7:30 PM,57.2,55.4,94,30.15,4.0,Calm,Calm,-,N/A,,Overcast,0,2013-05-28 23:30:00
7:45 PM,57.2,55.4,94,30.14,2.5,Calm,Calm,-,N/A,,Overcast,0,2013-05-28 23:45:00
7:53 PM,57.9,55.9,93,30.13,2.0,Calm,Calm,-,N/A,,Overcast,0,2013-05-28 23:53:00
8:28 PM,57.2,57.2,100,30.13,5.0,Calm,Calm,-,N/A,,Overcast,0,2013-05-29 00:28:00
8:53 PM,57.9,55.9,93,30.12,8.0,Calm,Calm,-,N/A,,Overcast,0,2013-05-29 00:53:00
9:53 PM,57.9,55.9,93,30.13,9.0,Calm,Calm,-,N/A,,Overcast,0,2013-05-29 01:53:00
10:53 PM,57.9,55.9,93,30.12,9.0,Calm,Calm,-,0.00,,Overcast,0,2013-05-29 02:53:00
11:53 PM,57.9,57.0,97,30.13,8.0,Calm,Calm,-,N/A,,Overcast,0,2013-05-29 03:53:00